Startpagina
METAR-TAF:

METAR-TAF

Vliegvelden :

Tarapoto, Peru

breedte: 06-27S, lengte: 076-23W, hoogte: 281 m

Actueel weer

Dit bericht is 38 minuten geleden gemaakt, om 00:00 UTC
Wind 3 kt uit het oosten
Temperatuur 25°C
Vochtigheid 94%
Druk 1009 hPa
Zicht 10 km of meer
Weinig wolken op 2500 ft
Verspreide wolken op 8000 ft

METAR: SPST 060000Z 10003KT 9999 FEW025 SCT080 25/24 Q1009 RMK BIRD HAZARD RWY 17/35 PP000

Tijdstip: 19:38 (00:38 UTC)

Verwachting

Dit bericht is 1 uur en het 38 minuten geleden gemaakt, om 23:00 UTC
Verwachting geldig van 06 om 00 UTC tot 06 om 24 UTC
Wind 2 kt uit variabele richting
Zicht 10 km of meer
Verspreide wolken op 2000 ft
Verspreide wolken op 8000 ft
Van 06 om 1500 UTC
Wind 6 kt uit het noorden
Zicht 10 km of meer
Verspreide wolken op 2000 ft

TAF: SPST 052300Z 0600/0624 VRB02KT 9999 SCT020 SCT080 TX32/0620Z TN22/0611Z FM061500 35006KT 9999 SCT020

Waarnemingen en weersverwachtingen van meer dan 4000 vliegvelden (METAR en TAF).

De beschikbare stations zijn de gele en rode punten op de kaart.

Ga met uw muis naar het station om de naam te zien.

Klik dan om waarnemingen en weersverwachtingen te zien.

kaart wijzigen: klik op de groene knoppen met een zwart kruis om in te zoomen, op de groene knop met een streepje om uit te zoomen of op de groene pijlen voor aangrenzende kaarten.


METAR-TAF: